Startpagina
METAR-TAF:

METAR-TAF

Vliegvelden :

Luchthaven Damascus

Damascus, Syrië

breedte: 33-25N, lengte: 036-31E, hoogte: 608 m

Actueel weer

Dit bericht is 49 minuten geleden gemaakt, om 19:00 UTC
Wind 14 kt uit het zuidzuidwesten
Temperatuur 23°C
Vochtigheid 41%
Druk 1011 hPa
Zicht 10 km of meer
geen wolken onder 1500 m en geen cumulonimbus

METAR: OSDI 231900Z 20014KT CAVOK 23/09 Q1011

Tijdstip: 22:49 (19:49 UTC)

Verwachting

Dit bericht is 3 uur en het 49 minuten geleden gemaakt, om 16:00 UTC
Verwachting geldig van 23 om 18 UTC tot 24 om 24 UTC
Wind 15 kt uit het zuidwesten
Zicht 10 km of meer
geen wolken onder 1500 m en geen cumulonimbus
Tijdelijke
van 24 om 09 UTC tot 24 om 18 UTC
Wind 15 kt uit het westen met uitschieters tot 25 kt
Zicht 10 km of meer
Weinig wolken op 3000 ft

TAF: OSDI 231600Z 2318/2424 22015KT CAVOK TEMPO 2409/2418 28015G25KT 9999 FEW030

Waarnemingen en weersverwachtingen van meer dan 4000 vliegvelden (METAR en TAF).

De beschikbare stations zijn de gele en rode punten op de kaart.

Ga met uw muis naar het station om de naam te zien.

Klik dan om waarnemingen en weersverwachtingen te zien.

kaart wijzigen: klik op de groene knoppen met een zwart kruis om in te zoomen, op de groene knop met een streepje om uit te zoomen of op de groene pijlen voor aangrenzende kaarten.


METAR-TAF: